createdAt,value
2017-11-18T00:01:39.853Z,9.93
2017-11-18T00:04:10.743Z,15.10
2017-11-18T00:06:41.597Z,12.70
2017-11-18T00:09:12.452Z,14.30
2017-11-18T00:11:43.328Z,12.30
2017-11-18T00:14:14.196Z,10.13
2017-11-18T00:16:45.082Z,10.23
2017-11-18T00:19:16.026Z,11.67
2017-11-18T00:21:46.890Z,9.97
2017-11-18T00:24:17.757Z,11.23
2017-11-18T00:26:48.622Z,9.30
2017-11-18T00:29:19.511Z,11.27
2017-11-18T00:31:50.362Z,10.97
2017-11-18T00:34:21.217Z,9.63
2017-11-18T00:36:52.093Z,12.83
2017-11-18T00:39:22.946Z,12.77
2017-11-18T00:41:53.819Z,13.40
2017-11-18T00:44:24.800Z,10.20
2017-11-18T00:46:55.653Z,9.90
2017-11-18T00:49:26.521Z,10.50
2017-11-18T00:51:57.393Z,11.33
2017-11-18T00:54:28.237Z,9.60
2017-11-18T00:56:59.125Z,9.70
2017-11-18T00:59:29.976Z,11.60
2017-11-18T01:02:00.853Z,8.00
2017-11-18T01:04:31.721Z,12.00
2017-11-18T01:07:02.601Z,9.53
2017-11-18T01:09:33.447Z,9.57
2017-11-18T01:12:04.417Z,10.50
2017-11-18T01:14:35.280Z,9.00
2017-11-18T01:17:06.198Z,9.37
2017-11-18T01:19:37.052Z,9.50
2017-11-18T01:22:07.899Z,10.23
2017-11-18T01:24:38.779Z,8.67
2017-11-18T01:27:09.646Z,10.27
2017-11-18T01:29:40.528Z,9.87
2017-11-18T01:32:11.383Z,11.20
2017-11-18T01:34:42.265Z,10.83
2017-11-18T01:37:13.143Z,10.53
2017-11-18T01:39:44.032Z,11.40
2017-11-18T01:42:14.885Z,10.30
2017-11-18T01:44:45.729Z,13.10
2017-11-18T01:47:16.605Z,10.90
2017-11-18T01:49:47.446Z,8.57
2017-11-18T01:52:18.315Z,12.17
2017-11-18T01:54:49.186Z,10.33
2017-11-18T01:57:20.054Z,8.53
2017-11-18T01:59:50.919Z,11.77
2017-11-18T02:02:21.769Z,9.67
2017-11-18T02:04:52.637Z,9.40
2017-11-18T02:07:23.504Z,10.67
2017-11-18T02:09:54.387Z,10.40
2017-11-18T02:12:25.237Z,10.90
2017-11-18T02:14:56.105Z,9.20
2017-11-18T02:17:26.981Z,10.60
2017-11-18T02:19:57.951Z,10.60
2017-11-18T02:22:28.793Z,8.00
2017-11-18T02:24:59.663Z,8.20
2017-11-18T02:27:30.520Z,10.00
2017-11-18T02:30:01.376Z,11.30
2017-11-18T02:32:32.248Z,10.17
2017-11-18T02:35:03.088Z,10.73
2017-11-18T02:37:33.972Z,9.70
2017-11-18T02:40:04.813Z,7.70
2017-11-18T02:42:35.693Z,8.93
2017-11-18T02:45:06.553Z,8.50
2017-11-18T02:47:37.413Z,9.67
2017-11-18T02:50:08.265Z,10.33
2017-11-18T02:52:39.120Z,9.63
2017-11-18T02:55:09.964Z,9.10
2017-11-18T02:57:40.815Z,8.63
2017-11-18T03:00:11.662Z,10.23
2017-11-18T03:02:42.517Z,10.80
2017-11-18T03:05:13.373Z,9.77
2017-11-18T03:07:44.237Z,9.40
2017-11-18T03:10:15.118Z,11.20
2017-11-18T03:12:45.977Z,9.93
2017-11-18T03:15:16.841Z,9.80
2017-11-18T03:17:47.702Z,9.67
2017-11-18T03:20:18.565Z,9.13
2017-11-18T03:22:49.446Z,10.40
2017-11-18T03:25:20.294Z,10.80
2017-11-18T03:27:51.156Z,10.40
2017-11-18T03:30:22.010Z,10.50
2017-11-18T03:32:53.051Z,9.80
2017-11-18T03:35:23.885Z,8.95
2017-11-18T03:37:54.729Z,8.07
2017-11-18T03:40:25.586Z,9.60
2017-11-18T03:42:56.447Z,8.17
2017-11-18T03:45:27.292Z,8.27
2017-11-18T03:47:58.141Z,9.30
2017-11-18T03:50:28.980Z,8.07
2017-11-18T03:52:59.859Z,9.80
2017-11-18T03:55:30.705Z,9.60
2017-11-18T03:58:01.577Z,9.40
2017-11-18T04:00:32.426Z,10.23
2017-11-18T04:03:03.287Z,8.80
2017-11-18T04:05:34.221Z,9.97
2017-11-18T04:08:05.059Z,8.70
2017-11-18T04:10:35.934Z,10.43
2017-11-18T04:13:06.772Z,9.10
2017-11-18T04:15:37.621Z,9.50
2017-11-18T04:18:08.493Z,9.93
2017-11-18T04:20:39.370Z,8.17
2017-11-18T04:23:10.220Z,10.33
2017-11-18T04:25:41.089Z,8.07
2017-11-18T04:28:11.945Z,8.97
2017-11-18T04:30:42.819Z,9.73
2017-11-18T04:33:13.689Z,10.70
2017-11-18T04:35:44.550Z,9.00
2017-11-18T04:38:15.413Z,9.10
2017-11-18T04:40:46.265Z,9.60
2017-11-18T04:43:17.114Z,10.13
2017-11-18T04:45:47.952Z,11.93
2017-11-18T04:48:18.828Z,10.83
2017-11-18T04:50:49.675Z,8.50
2017-11-18T04:53:20.541Z,9.13
2017-11-18T04:55:51.376Z,8.57
2017-11-18T04:58:22.236Z,11.67
2017-11-18T05:00:53.072Z,11.10
2017-11-18T05:03:23.933Z,9.80
2017-11-18T05:05:54.772Z,10.03
2017-11-18T05:08:25.645Z,10.10
2017-11-18T05:10:56.477Z,8.77
2017-11-18T05:13:27.333Z,9.03
2017-11-18T05:15:58.179Z,7.90
2017-11-18T05:18:29.336Z,10.40
2017-11-18T05:21:00.182Z,9.40
2017-11-18T05:23:31.041Z,8.23
2017-11-18T05:26:01.901Z,8.70
2017-11-18T05:28:32.871Z,9.33
2017-11-18T05:31:03.716Z,10.13
2017-11-18T05:33:34.589Z,9.00
2017-11-18T05:36:05.461Z,8.30
2017-11-18T05:38:36.312Z,9.07
2017-11-18T05:41:07.185Z,10.17
2017-11-18T05:43:38.073Z,8.47
2017-11-18T05:46:08.907Z,9.07
2017-11-18T05:48:39.760Z,10.20
2017-11-18T05:51:10.604Z,8.70
2017-11-18T05:53:41.472Z,9.13
2017-11-18T05:56:12.315Z,9.50
2017-11-18T05:58:43.189Z,10.30
2017-11-18T06:01:14.048Z,9.77
2017-11-18T06:03:44.906Z,8.50
2017-11-18T06:06:15.752Z,9.67
2017-11-18T06:08:46.609Z,8.93
2017-11-18T06:11:17.472Z,9.37
2017-11-18T06:13:48.352Z,10.50
2017-11-18T06:16:19.192Z,9.30
2017-11-18T06:18:50.089Z,9.33
2017-11-18T06:21:20.965Z,8.83
2017-11-18T06:23:51.825Z,9.83
2017-11-18T06:26:22.688Z,9.30
2017-11-18T06:28:53.550Z,8.30
2017-11-18T06:31:24.429Z,9.97
2017-11-18T06:33:55.269Z,9.93
2017-11-18T06:36:26.124Z,9.43
2017-11-18T06:38:56.982Z,10.00
2017-11-18T06:41:27.835Z,10.20
2017-11-18T06:43:58.697Z,8.17
2017-11-18T06:46:29.560Z,7.83
2017-11-18T06:49:00.400Z,8.53
2017-11-18T06:51:31.300Z,8.70
2017-11-18T06:54:02.132Z,8.60
2017-11-18T06:56:32.995Z,9.70
2017-11-18T06:59:03.855Z,10.33
2017-11-18T07:01:34.746Z,8.00
2017-11-18T07:04:05.589Z,8.00
2017-11-18T07:06:36.441Z,7.20
2017-11-18T07:09:07.284Z,7.30
2017-11-18T07:11:38.152Z,8.63
2017-11-18T07:14:09.016Z,7.00
2017-11-18T07:16:39.865Z,7.13
2017-11-18T07:19:10.718Z,7.33
2017-11-18T07:21:41.592Z,9.03
2017-11-18T07:24:12.465Z,8.00
2017-11-18T07:26:43.319Z,7.37
2017-11-18T07:29:14.182Z,7.23
2017-11-18T07:31:45.045Z,8.50
2017-11-18T07:34:15.910Z,7.40
2017-11-18T07:36:46.759Z,9.27
2017-11-18T07:39:17.642Z,7.23
2017-11-18T07:41:48.484Z,7.27
2017-11-18T07:44:19.363Z,7.67
2017-11-18T07:46:50.211Z,6.90
2017-11-18T07:49:21.074Z,7.30
2017-11-18T07:51:51.942Z,6.80
2017-11-18T07:54:22.814Z,6.57
2017-11-18T07:56:53.668Z,7.10
2017-11-18T07:59:24.533Z,8.70
2017-11-18T08:01:55.399Z,7.60
2017-11-18T08:04:26.249Z,7.37
2017-11-18T08:06:57.121Z,7.07
2017-11-18T08:09:27.994Z,13.83
2017-11-18T08:11:58.842Z,7.67
2017-11-18T08:14:29.746Z,13.33
2017-11-18T08:17:00.581Z,10.30
2017-11-18T08:19:31.445Z,8.67
2017-11-18T08:22:02.291Z,12.10
2017-11-18T08:24:33.150Z,15.10
2017-11-18T08:27:04.031Z,15.03
2017-11-18T08:29:36.876Z,16.23
2017-11-18T08:32:07.746Z,12.02
2017-11-18T08:34:38.604Z,10.53
2017-11-18T08:37:09.454Z,14.63
2017-11-18T08:39:40.323Z,11.77
2017-11-18T08:42:11.203Z,11.80
2017-11-18T08:44:42.058Z,10.87
2017-11-18T08:47:12.940Z,11.90
2017-11-18T08:49:43.800Z,7.27
2017-11-18T08:52:14.667Z,6.03
2017-11-18T08:54:45.625Z,5.33
2017-11-18T08:57:16.575Z,6.27
2017-11-18T08:59:47.408Z,3.47
2017-11-18T09:02:18.289Z,4.63
2017-11-18T09:04:49.140Z,3.63
2017-11-18T09:07:20.037Z,4.23
2017-11-18T09:09:50.882Z,4.57
2017-11-18T09:12:21.761Z,3.30
2017-11-18T09:14:52.605Z,3.60
2017-11-18T09:17:23.466Z,2.57
2017-11-18T09:19:54.335Z,1.90
2017-11-18T09:22:25.197Z,2.37
2017-11-18T09:24:56.062Z,2.23
2017-11-18T09:27:26.943Z,4.00
2017-11-18T09:29:57.791Z,2.50
2017-11-18T09:32:28.673Z,2.50
2017-11-18T09:34:59.539Z,1.93
2017-11-18T09:37:30.401Z,4.30
2017-11-18T09:40:01.263Z,2.23
2017-11-18T09:42:32.158Z,4.47
2017-11-18T09:45:03.021Z,2.40
2017-11-18T09:47:33.918Z,2.43
2017-11-18T09:50:04.787Z,2.20
2017-11-18T09:52:35.664Z,3.40
2017-11-18T09:55:06.559Z,3.47
2017-11-18T09:57:37.423Z,2.40
2017-11-18T10:00:08.311Z,2.40
2017-11-18T10:02:39.164Z,2.00
2017-11-18T10:05:10.016Z,2.87
2017-11-18T10:07:40.889Z,2.00
2017-11-18T10:10:11.757Z,2.93
2017-11-18T10:12:42.705Z,3.10
2017-11-18T10:15:13.573Z,2.20
2017-11-18T10:17:44.460Z,4.67
2017-11-18T10:20:15.322Z,9.93
2017-11-18T10:22:46.163Z,6.47
2017-11-18T10:25:17.024Z,8.60
2017-11-18T10:27:47.884Z,6.80
2017-11-18T10:30:18.779Z,6.10
2017-11-18T10:32:49.653Z,5.53
2017-11-18T10:35:20.533Z,5.10
2017-11-18T10:37:51.414Z,5.00
2017-11-18T10:40:22.277Z,5.90
2017-11-18T10:42:53.163Z,2.77
2017-11-18T10:45:24.020Z,2.57
2017-11-18T10:47:54.881Z,1.80
2017-11-18T10:50:25.795Z,1.63
2017-11-18T10:52:56.641Z,1.00
2017-11-18T10:55:27.507Z,1.33
2017-11-18T10:57:58.360Z,0.83
2017-11-18T11:00:29.219Z,0.67
2017-11-18T11:03:00.878Z,0.57
2017-11-18T11:05:31.711Z,0.45
2017-11-18T11:08:02.569Z,0.50
2017-11-18T11:10:33.422Z,0.60
2017-11-18T11:13:04.289Z,0.30
2017-11-18T11:15:35.163Z,0.40
2017-11-18T11:18:06.103Z,2.10
2017-11-18T11:20:36.974Z,1.47
2017-11-18T11:23:07.845Z,2.10
2017-11-18T11:25:38.697Z,1.73
2017-11-18T11:28:09.575Z,1.77
2017-11-18T11:30:40.475Z,0.77
2017-11-18T11:33:11.354Z,1.03
2017-11-18T11:35:42.216Z,1.20
2017-11-18T11:38:13.079Z,1.33
2017-11-18T11:40:43.949Z,0.60
2017-11-18T11:43:14.833Z,0.70
2017-11-18T11:45:45.692Z,0.60
2017-11-18T11:48:16.542Z,0.60
2017-11-18T11:50:47.428Z,0.70
2017-11-18T11:53:18.260Z,0.50
2017-11-18T11:55:49.173Z,0.77
2017-11-18T11:58:20.006Z,1.07
2017-11-18T12:00:50.949Z,0.53
2017-11-18T12:03:21.785Z,1.77
2017-11-18T12:05:52.651Z,3.17
2017-11-18T12:08:23.520Z,0.87
2017-11-18T12:10:54.429Z,2.13
2017-11-18T12:13:25.319Z,1.77
2017-11-18T12:15:56.164Z,2.80
2017-11-18T12:18:27.046Z,3.03
2017-11-18T12:20:57.922Z,2.13
2017-11-18T12:23:28.862Z,3.20
2017-11-18T12:25:59.790Z,1.80
2017-11-18T12:28:30.660Z,2.03
2017-11-18T12:31:01.550Z,2.67
2017-11-18T12:33:32.433Z,1.63
2017-11-18T12:36:03.299Z,1.70
2017-11-18T12:38:34.197Z,3.20
2017-11-18T12:41:05.045Z,4.10
2017-11-18T12:43:35.897Z,3.73
2017-11-18T12:46:06.825Z,4.63
2017-11-18T12:48:37.675Z,3.20
2017-11-18T12:51:08.544Z,1.97
2017-11-18T12:53:39.428Z,2.50
2017-11-18T12:56:10.280Z,3.10
2017-11-18T12:58:41.176Z,3.27
2017-11-18T13:01:12.024Z,4.17
2017-11-18T13:03:42.881Z,6.10
2017-11-18T13:06:13.716Z,4.23
2017-11-18T13:08:44.549Z,2.70
2017-11-18T13:11:15.370Z,2.10
2017-11-18T13:13:46.233Z,2.57
2017-11-18T13:16:17.087Z,2.80
2017-11-18T13:18:47.960Z,12.27
2017-11-18T13:21:18.827Z,36.57
2017-11-18T13:23:49.688Z,28.20
2017-11-18T13:26:20.559Z,21.30
2017-11-18T13:28:51.410Z,21.33
2017-11-18T13:31:22.285Z,11.43
2017-11-18T13:33:53.149Z,12.97
2017-11-18T13:36:24.002Z,11.53
2017-11-18T13:38:54.906Z,9.83
2017-11-18T13:41:25.866Z,9.03
2017-11-18T13:43:56.757Z,5.23
2017-11-18T13:46:27.617Z,6.50
2017-11-18T13:48:58.474Z,4.97
2017-11-18T13:51:29.318Z,8.10
2017-11-18T13:54:00.185Z,3.17
2017-11-18T13:56:31.064Z,1.77
2017-11-18T13:59:01.940Z,0.87
2017-11-18T14:01:32.811Z,1.33
2017-11-18T14:04:03.672Z,0.60
2017-11-18T14:06:34.561Z,1.23
2017-11-18T14:09:05.421Z,0.67
2017-11-18T14:11:36.284Z,0.70
2017-11-18T14:14:07.112Z,2.60
2017-11-18T14:16:37.972Z,0.63
2017-11-18T14:19:08.915Z,0.60
2017-11-18T14:21:39.781Z,0.60
2017-11-18T14:24:10.634Z,0.30
2017-11-18T14:26:41.526Z,1.13
2017-11-18T14:29:12.361Z,0.40
2017-11-18T14:31:43.211Z,0.33
2017-11-18T14:34:14.076Z,0.50
2017-11-18T14:36:44.944Z,0.50
2017-11-18T14:39:15.805Z,0.40
2017-11-18T14:41:46.673Z,0.40
2017-11-18T14:44:17.533Z,0.67
2017-11-18T14:46:48.414Z,0.90
2017-11-18T14:49:19.265Z,0.30
2017-11-18T14:51:50.101Z,0.30
2017-11-18T14:54:21.006Z,0.63
2017-11-18T14:56:51.845Z,0.67
2017-11-18T14:59:22.698Z,0.60
2017-11-18T15:01:53.553Z,0.73
2017-11-18T15:04:24.444Z,0.50
2017-11-18T15:06:55.309Z,0.47
2017-11-18T15:09:26.207Z,0.50
2017-11-18T15:11:57.062Z,0.50
2017-11-18T15:14:27.945Z,0.50
2017-11-18T15:16:58.801Z,0.80
2017-11-18T15:19:29.669Z,1.20
2017-11-18T15:22:00.517Z,0.30
2017-11-18T15:24:31.421Z,0.50
2017-11-18T15:27:02.273Z,0.30
2017-11-18T15:29:33.138Z,0.40
2017-11-18T15:32:04.017Z,0.50
2017-11-18T15:34:34.888Z,1.03
2017-11-18T15:37:05.786Z,0.40
2017-11-18T15:39:36.633Z,0.93
2017-11-18T15:42:07.523Z,0.50
2017-11-18T15:44:38.371Z,0.30
2017-11-18T15:47:09.272Z,0.70
2017-11-18T15:49:40.113Z,0.30
2017-11-18T15:52:10.977Z,1.00
2017-11-18T15:54:41.830Z,1.77
2017-11-18T15:57:12.694Z,3.33
2017-11-18T15:59:43.558Z,2.73
2017-11-18T16:02:14.444Z,2.10
2017-11-18T16:04:45.306Z,2.83
2017-11-18T16:07:16.170Z,1.73
2017-11-18T16:09:47.056Z,2.40
2017-11-18T16:12:17.905Z,3.20
2017-11-18T16:14:48.770Z,1.40
2017-11-18T16:17:19.654Z,1.97
2017-11-18T16:19:50.504Z,2.13
2017-11-18T16:22:21.338Z,1.87
2017-11-18T16:24:52.208Z,1.93
2017-11-18T16:27:23.067Z,2.43
2017-11-18T16:29:53.929Z,4.73
2017-11-18T16:32:24.769Z,6.37
2017-11-18T16:34:55.760Z,4.50
2017-11-18T16:37:26.637Z,6.27
2017-11-18T16:39:57.513Z,7.27
2017-11-18T16:42:28.358Z,7.40
2017-11-18T16:44:59.222Z,5.17
2017-11-18T16:47:30.110Z,7.50
2017-11-18T16:50:00.984Z,6.30
2017-11-18T16:52:32.143Z,4.10
2017-11-18T16:55:02.993Z,4.80
2017-11-18T16:57:33.853Z,14.07
2017-11-18T17:00:04.729Z,4.23
2017-11-18T17:02:35.596Z,4.50
2017-11-18T17:05:06.446Z,3.80
2017-11-18T17:07:37.333Z,5.73
2017-11-18T17:10:08.595Z,4.73
2017-11-18T17:12:39.485Z,5.22
2017-11-18T17:15:10.330Z,8.10
2017-11-18T17:17:41.237Z,3.87
2017-11-18T17:20:12.081Z,6.67
2017-11-18T17:22:42.935Z,5.07
2017-11-18T17:25:13.801Z,4.10
2017-11-18T17:27:44.670Z,6.33
2017-11-18T17:30:15.527Z,3.80
2017-11-18T17:32:46.463Z,6.93
2017-11-18T17:35:17.320Z,3.57
2017-11-18T17:37:48.199Z,4.63
2017-11-18T17:40:19.616Z,3.83
2017-11-18T17:42:50.460Z,5.60
2017-11-18T17:45:21.319Z,3.70
2017-11-18T17:47:52.214Z,6.17
2017-11-18T17:50:23.101Z,7.37
2017-11-18T17:52:53.957Z,4.10
2017-11-18T17:55:24.845Z,3.73
2017-11-18T17:57:55.703Z,3.90
2017-11-18T18:00:26.901Z,5.90
2017-11-18T18:02:57.851Z,4.68
2017-11-18T18:05:28.708Z,2.60
2017-11-18T18:07:59.550Z,3.20
2017-11-18T18:10:30.377Z,4.37
2017-11-18T18:13:01.222Z,5.13
2017-11-18T18:15:32.097Z,4.30
2017-11-18T18:18:02.936Z,4.00
2017-11-18T18:20:34.008Z,4.37
2017-11-18T18:23:04.957Z,4.37
2017-11-18T18:25:35.823Z,3.20
2017-11-18T18:28:06.689Z,4.17
2017-11-18T18:30:37.562Z,4.57
2017-11-18T18:33:08.425Z,2.50
2017-11-18T18:35:39.302Z,3.97
2017-11-18T18:38:10.167Z,3.23
2017-11-18T18:40:41.035Z,6.63
2017-11-18T18:43:11.919Z,2.60
2017-11-18T18:45:42.789Z,3.67
2017-11-18T18:48:13.668Z,4.50
2017-11-18T18:50:44.521Z,4.63
2017-11-18T18:53:15.379Z,3.80
2017-11-18T18:55:46.280Z,3.53
2017-11-18T18:58:17.175Z,3.47
2017-11-18T19:00:48.047Z,3.53
2017-11-18T19:03:18.924Z,4.10
2017-11-18T19:05:49.790Z,2.83
2017-11-18T19:08:20.706Z,3.90
2017-11-18T19:10:51.571Z,3.80
2017-11-18T19:13:22.485Z,3.63
2017-11-18T19:15:53.352Z,3.10
2017-11-18T19:18:24.217Z,4.80
2017-11-18T19:20:55.110Z,5.60
2017-11-18T19:23:25.966Z,3.37
2017-11-18T19:25:56.817Z,5.30
2017-11-18T19:28:27.718Z,4.40
2017-11-18T19:30:58.586Z,2.60
2017-11-18T19:33:29.462Z,4.47
2017-11-18T19:36:00.397Z,5.23
2017-11-18T19:38:31.265Z,5.50
2017-11-18T19:41:02.140Z,4.20
2017-11-18T19:43:33.025Z,2.80
2017-11-18T19:46:03.904Z,4.57
2017-11-18T19:48:34.794Z,3.70
2017-11-18T19:51:05.671Z,3.30
2017-11-18T19:53:36.559Z,3.13
2017-11-18T19:56:07.433Z,8.03
2017-11-18T19:58:38.304Z,2.50
2017-11-18T20:01:09.181Z,5.33
2017-11-18T20:03:40.174Z,4.80
2017-11-18T20:06:11.032Z,3.67
2017-11-18T20:08:41.882Z,3.83
2017-11-18T20:11:12.752Z,4.60
2017-11-18T20:13:43.741Z,4.10
2017-11-18T20:16:14.593Z,3.90
2017-11-18T20:18:45.451Z,4.00
2017-11-18T20:21:16.363Z,5.63
2017-11-18T20:23:47.420Z,3.03
2017-11-18T20:26:18.287Z,4.40
2017-11-18T20:28:49.257Z,6.10
2017-11-18T20:31:20.129Z,3.10
2017-11-18T20:33:51.040Z,3.97
2017-11-18T20:36:22.289Z,4.70
2017-11-18T20:38:53.171Z,4.87
2017-11-18T20:41:24.043Z,2.67
2017-11-18T20:43:55.718Z,7.73
2017-11-18T20:46:26.576Z,15.57
2017-11-18T20:48:57.475Z,12.90
2017-11-18T20:51:28.344Z,20.40
2017-11-18T20:53:59.231Z,17.17
2017-11-18T20:56:30.207Z,13.20
2017-11-18T20:59:01.102Z,12.50
2017-11-18T21:01:31.966Z,17.57
2017-11-18T21:04:02.852Z,9.90
2017-11-18T21:06:33.744Z,12.70
2017-11-18T21:09:04.656Z,8.80
2017-11-18T21:11:35.490Z,13.23
2017-11-18T21:14:06.673Z,10.70
2017-11-18T21:16:37.546Z,14.43
2017-11-18T21:19:08.458Z,13.80
2017-11-18T21:21:39.334Z,11.00
2017-11-18T21:24:10.241Z,14.37
2017-11-18T21:26:41.134Z,11.07
2017-11-18T21:29:11.997Z,15.07
2017-11-18T21:31:42.868Z,10.13
2017-11-18T21:34:13.772Z,13.50
2017-11-18T21:36:44.665Z,16.43
2017-11-18T21:39:15.500Z,13.40
2017-11-18T21:41:46.404Z,7.27
2017-11-18T21:44:17.289Z,12.90
2017-11-18T21:46:48.150Z,6.13
2017-11-18T21:49:19.027Z,2.20
2017-11-18T21:51:49.914Z,2.67
2017-11-18T21:54:20.775Z,1.90
2017-11-18T21:56:51.626Z,1.10
2017-11-18T21:59:22.509Z,0.93
2017-11-18T22:01:53.356Z,0.77
2017-11-18T22:04:24.363Z,0.63
2017-11-18T22:06:55.226Z,0.95
2017-11-18T22:09:26.149Z,0.97
2017-11-18T22:11:57.061Z,1.30
2017-11-18T22:14:28.003Z,1.10
2017-11-18T22:16:58.857Z,2.40
2017-11-18T22:19:29.802Z,0.40
2017-11-18T22:22:00.668Z,1.83
2017-11-18T22:24:31.666Z,0.93
2017-11-18T22:27:02.542Z,5.20
2017-11-18T22:29:33.401Z,2.33
2017-11-18T22:32:04.285Z,1.10
2017-11-18T22:34:35.140Z,1.00
2017-11-18T22:37:06.092Z,1.40
2017-11-18T22:39:37.788Z,1.92
2017-11-18T22:42:08.680Z,1.80
2017-11-18T22:44:39.555Z,3.50
2017-11-18T22:47:10.430Z,5.10
2017-11-18T22:49:41.296Z,3.50
2017-11-18T22:52:12.401Z,4.93
2017-11-18T22:54:43.703Z,3.22
2017-11-18T22:57:14.583Z,2.37
2017-11-18T22:59:45.458Z,5.70
2017-11-18T23:02:16.314Z,3.63
2017-11-18T23:04:47.187Z,3.43
2017-11-18T23:07:18.063Z,2.90
2017-11-18T23:09:48.950Z,2.23
2017-11-18T23:12:19.790Z,4.90
2017-11-18T23:14:50.636Z,4.30
2017-11-18T23:17:21.504Z,5.23
2017-11-18T23:19:52.417Z,3.87
2017-11-18T23:22:23.308Z,3.70
2017-11-18T23:24:54.176Z,3.00
2017-11-18T23:27:25.053Z,6.77
2017-11-18T23:29:55.914Z,2.80
2017-11-18T23:32:26.805Z,3.27
2017-11-18T23:34:57.650Z,5.33
2017-11-18T23:37:28.548Z,3.43
2017-11-18T23:39:59.413Z,3.43
2017-11-18T23:42:30.271Z,6.50
2017-11-18T23:45:01.161Z,5.67
2017-11-18T23:47:32.013Z,4.43
2017-11-18T23:50:02.857Z,3.00
2017-11-18T23:52:33.721Z,3.33
2017-11-18T23:55:04.570Z,2.83
2017-11-18T23:57:35.500Z,3.67
